createdAt,value
2023-05-09T00:01:32.091Z,2.97
2023-05-09T00:04:35.447Z,2.92
2023-05-09T00:07:38.312Z,3.30
2023-05-09T00:10:41.134Z,2.80
2023-05-09T00:13:44.275Z,2.60
2023-05-09T00:16:47.140Z,2.87
2023-05-09T00:19:51.136Z,2.90
2023-05-09T00:22:55.210Z,2.83
2023-05-09T00:25:58.417Z,2.95
2023-05-09T00:29:01.123Z,3.25
2023-05-09T00:35:07.785Z,2.92
2023-05-09T00:38:10.469Z,2.97
2023-05-09T00:41:13.319Z,2.67
2023-05-09T00:44:15.807Z,3.10
2023-05-09T00:47:19.105Z,3.10
2023-05-09T00:50:21.974Z,3.37
2023-05-09T00:53:25.383Z,3.25
2023-05-09T00:56:28.366Z,2.97
2023-05-09T00:59:31.925Z,3.30
2023-05-09T01:02:34.474Z,3.12
2023-05-09T01:05:50.030Z,3.15
2023-05-09T01:09:17.523Z,3.15
2023-05-09T01:12:26.073Z,3.30
2023-05-09T01:15:34.361Z,3.03
2023-05-09T01:18:51.922Z,3.30
2023-05-09T01:21:56.831Z,3.70
2023-05-09T01:25:24.876Z,3.50
2023-05-09T01:28:55.068Z,3.20
2023-05-09T01:32:01.046Z,3.50
2023-05-09T01:35:05.218Z,3.28
2023-05-09T01:38:13.497Z,3.42
2023-05-09T01:41:18.126Z,3.67
2023-05-09T01:44:22.650Z,3.37
2023-05-09T01:47:26.397Z,3.70
2023-05-09T01:50:32.957Z,3.62
2023-05-09T01:53:36.111Z,3.90
2023-05-09T01:56:41.036Z,3.58
2023-05-09T01:59:45.575Z,3.75
2023-05-09T02:02:49.427Z,3.72
2023-05-09T02:05:53.198Z,3.87
2023-05-09T02:08:56.955Z,3.70
2023-05-09T02:12:02.030Z,4.10
2023-05-09T02:15:06.572Z,3.60
2023-05-09T02:18:09.669Z,3.78
2023-05-09T02:21:12.917Z,4.10
2023-05-09T02:24:15.609Z,4.03
2023-05-09T02:27:20.673Z,4.35
2023-05-09T02:30:27.632Z,4.35
2023-05-09T02:33:31.453Z,4.35
2023-05-09T02:36:35.062Z,4.10
2023-05-09T02:39:37.940Z,4.70
2023-05-09T02:42:40.574Z,4.20
2023-05-09T02:45:43.879Z,4.62
2023-05-09T02:48:46.473Z,4.87
2023-05-09T02:51:49.259Z,4.40
2023-05-09T02:54:51.812Z,4.50
2023-05-09T02:58:09.193Z,4.60
2023-05-09T03:01:15.889Z,4.53
2023-05-09T03:04:19.854Z,5.00
2023-05-09T03:07:22.533Z,5.00
2023-05-09T03:10:25.472Z,4.80
2023-05-09T03:13:28.128Z,4.80
2023-05-09T03:16:32.758Z,5.07
2023-05-09T03:19:35.616Z,4.57
2023-05-09T03:22:38.746Z,4.78
2023-05-09T03:25:42.189Z,4.72
2023-05-09T03:28:45.976Z,5.70
2023-05-09T03:31:48.808Z,4.82
2023-05-09T03:34:51.791Z,4.47
2023-05-09T03:37:54.339Z,4.93
2023-05-09T03:40:57.387Z,4.72
2023-05-09T03:44:00.628Z,4.25
2023-05-09T03:47:03.515Z,4.45
2023-05-09T03:50:07.922Z,4.85
2023-05-09T03:53:11.437Z,4.45
2023-05-09T03:56:14.541Z,4.95
2023-05-09T03:59:18.134Z,4.70
2023-05-09T04:02:21.087Z,4.82
2023-05-09T04:05:24.394Z,4.15
2023-05-09T04:08:27.807Z,4.65
2023-05-09T04:11:30.660Z,4.30
2023-05-09T04:14:33.708Z,4.47
2023-05-09T04:17:36.741Z,4.45
2023-05-09T04:20:39.583Z,4.43
2023-05-09T04:23:43.700Z,4.43
2023-05-09T04:26:46.792Z,4.47
2023-05-09T04:29:49.911Z,4.40
2023-05-09T04:32:53.572Z,4.12
2023-05-09T04:35:57.845Z,4.90
2023-05-09T04:39:01.100Z,4.30
2023-05-09T04:42:05.209Z,4.15
2023-05-09T04:45:08.443Z,4.47
2023-05-09T04:48:11.894Z,4.37
2023-05-09T04:51:14.369Z,4.78
2023-05-09T04:54:17.493Z,4.75
2023-05-09T04:57:21.329Z,4.20
2023-05-09T05:00:24.904Z,4.30
2023-05-09T05:03:27.461Z,4.20
2023-05-09T05:06:31.785Z,4.15
2023-05-09T05:09:35.058Z,4.40
2023-05-09T05:12:38.164Z,4.15
2023-05-09T05:15:43.274Z,4.45
2023-05-09T05:18:46.337Z,4.35
2023-05-09T05:21:49.308Z,4.37
2023-05-09T05:24:52.461Z,4.12
2023-05-09T05:27:55.351Z,5.12
2023-05-09T05:30:58.194Z,4.40
2023-05-09T05:34:00.739Z,4.22
2023-05-09T05:37:04.759Z,4.30
2023-05-09T05:40:08.222Z,4.10
2023-05-09T05:43:12.190Z,3.92
2023-05-09T05:46:15.109Z,4.45
2023-05-09T05:49:18.519Z,4.00
2023-05-09T05:52:21.261Z,3.92
2023-05-09T05:55:24.221Z,4.05
2023-05-09T05:58:26.912Z,3.67
2023-05-09T06:01:29.738Z,3.92
2023-05-09T06:04:33.912Z,3.78
2023-05-09T06:07:37.007Z,3.70
2023-05-09T06:10:40.102Z,3.87
2023-05-09T06:13:42.676Z,3.70
2023-05-09T06:16:46.548Z,3.80
2023-05-09T06:19:49.942Z,3.80
2023-05-09T06:22:52.777Z,3.45
2023-05-09T06:25:55.504Z,3.70
2023-05-09T06:28:58.402Z,4.10
2023-05-09T06:32:01.083Z,3.15
2023-05-09T06:35:04.126Z,3.05
2023-05-09T06:38:07.107Z,3.30
2023-05-09T06:41:10.040Z,3.90
2023-05-09T06:44:12.521Z,3.12
2023-05-09T06:47:15.527Z,2.12
2023-05-09T06:50:18.226Z,2.08
2023-05-09T06:53:21.187Z,1.62
2023-05-09T06:56:25.359Z,1.67
2023-05-09T06:59:28.296Z,1.70
2023-05-09T07:02:31.099Z,1.48
2023-05-09T07:05:34.544Z,1.60
2023-05-09T07:08:37.183Z,1.60
2023-05-09T07:11:40.066Z,1.40
2023-05-09T07:14:42.500Z,1.30
2023-05-09T07:17:45.362Z,1.40
2023-05-09T07:20:48.052Z,1.40
2023-05-09T07:23:50.961Z,1.50
2023-05-09T07:26:53.701Z,1.30
2023-05-09T07:29:56.567Z,1.58
2023-05-09T07:32:59.192Z,2.10
2023-05-09T07:36:02.083Z,1.55
2023-05-09T07:39:04.989Z,1.37
2023-05-09T07:42:08.510Z,1.52
2023-05-09T07:45:11.115Z,1.10
2023-05-09T07:48:13.932Z,1.20
2023-05-09T07:51:16.562Z,1.30
2023-05-09T07:54:19.420Z,1.30
2023-05-09T07:57:22.799Z,1.08
2023-05-09T08:00:25.921Z,0.90
2023-05-09T08:03:28.792Z,1.15
2023-05-09T08:06:31.436Z,0.95
2023-05-09T08:09:34.517Z,0.80
2023-05-09T08:12:37.103Z,0.77
2023-05-09T08:15:39.940Z,1.33
2023-05-09T08:18:42.517Z,1.10
2023-05-09T08:21:45.617Z,1.02
2023-05-09T08:24:48.228Z,1.10
2023-05-09T08:27:52.970Z,0.90
2023-05-09T08:30:56.941Z,1.65
2023-05-09T08:33:59.897Z,1.20
2023-05-09T08:37:03.177Z,1.80
2023-05-09T08:40:10.184Z,1.20
2023-05-09T08:43:14.314Z,0.90
2023-05-09T08:46:18.833Z,1.17
2023-05-09T08:49:21.537Z,0.80
2023-05-09T08:52:24.719Z,0.93
2023-05-09T08:55:28.471Z,1.00
2023-05-09T08:58:32.013Z,0.80
2023-05-09T09:01:37.848Z,1.25
2023-05-09T09:04:41.051Z,0.70
2023-05-09T09:07:44.975Z,0.80
2023-05-09T09:10:48.364Z,0.80
2023-05-09T09:13:54.964Z,0.80
2023-05-09T09:16:58.711Z,0.90
2023-05-09T09:20:05.791Z,0.70
2023-05-09T09:23:10.640Z,0.95
2023-05-09T09:26:13.719Z,1.00
2023-05-09T09:29:18.683Z,0.95
2023-05-09T09:32:32.263Z,0.70
2023-05-09T09:35:39.280Z,0.90
2023-05-09T09:38:45.679Z,1.60
2023-05-09T09:41:48.783Z,1.15
2023-05-09T09:44:57.635Z,0.80
2023-05-09T09:48:07.411Z,0.68
2023-05-09T09:51:11.558Z,0.90
2023-05-09T09:54:15.056Z,0.90
2023-05-09T09:57:38.338Z,0.52
2023-05-09T10:00:41.543Z,0.75
2023-05-09T10:03:47.148Z,0.60
2023-05-09T10:06:58.218Z,0.70
2023-05-09T10:10:06.066Z,0.70
2023-05-09T10:13:12.102Z,1.00
2023-05-09T10:16:21.365Z,0.80
2023-05-09T10:19:30.190Z,0.75
2023-05-09T10:22:34.592Z,0.88
2023-05-09T10:25:46.918Z,1.00
2023-05-09T10:28:54.809Z,0.80
2023-05-09T10:32:00.452Z,0.85
2023-05-09T10:35:07.005Z,1.00
2023-05-09T10:38:12.533Z,1.00
2023-05-09T10:41:17.307Z,1.02
2023-05-09T10:44:23.226Z,1.02
2023-05-09T10:47:28.086Z,1.00
2023-05-09T10:50:31.474Z,0.98
2023-05-09T10:53:48.790Z,0.90
2023-05-09T10:56:51.932Z,0.70
2023-05-09T10:59:56.708Z,0.90
2023-05-09T11:03:06.440Z,0.90
2023-05-09T11:06:09.439Z,0.90
2023-05-09T11:09:33.038Z,0.90
2023-05-09T11:12:56.180Z,1.00
2023-05-09T11:16:03.221Z,1.10
2023-05-09T11:19:08.311Z,1.37
2023-05-09T11:22:17.920Z,1.05
2023-05-09T11:25:29.241Z,1.02
2023-05-09T11:28:37.648Z,1.35
2023-05-09T11:32:07.815Z,1.10
2023-05-09T11:35:22.032Z,1.20
2023-05-09T11:38:45.306Z,1.20
2023-05-09T11:41:51.206Z,1.00
2023-05-09T11:44:58.585Z,1.00
2023-05-09T11:48:09.246Z,1.30
2023-05-09T11:51:19.390Z,0.98
2023-05-09T11:54:24.397Z,1.30
2023-05-09T11:57:29.198Z,1.20
2023-05-09T12:00:32.097Z,1.00
2023-05-09T12:03:34.994Z,1.02
2023-05-09T12:06:37.810Z,1.00
2023-05-09T12:09:40.922Z,1.20
2023-05-09T12:12:45.927Z,1.00
2023-05-09T12:15:49.110Z,0.98
2023-05-09T12:18:54.420Z,1.00
2023-05-09T12:22:02.950Z,1.20
2023-05-09T12:25:07.834Z,1.08
2023-05-09T12:28:11.069Z,0.90
2023-05-09T12:31:13.935Z,1.10
2023-05-09T12:34:17.217Z,0.90
2023-05-09T12:37:20.049Z,0.93
2023-05-09T12:40:23.444Z,0.90
2023-05-09T12:43:26.113Z,1.05
2023-05-09T12:46:29.007Z,0.90
2023-05-09T12:49:32.316Z,0.90
2023-05-09T12:52:54.154Z,0.98
2023-05-09T12:56:12.240Z,1.00
2023-05-09T12:59:20.946Z,1.10
2023-05-09T13:02:25.592Z,1.00
2023-05-09T13:05:28.866Z,0.90
2023-05-09T13:08:31.801Z,0.80
2023-05-09T13:11:35.392Z,0.95
2023-05-09T13:14:38.216Z,1.10
2023-05-09T13:17:41.156Z,0.90
2023-05-09T13:20:43.744Z,0.90
2023-05-09T13:23:46.576Z,1.00
2023-05-09T13:26:49.198Z,0.90
2023-05-09T13:29:52.068Z,0.75
2023-05-09T13:32:54.645Z,1.40
2023-05-09T13:35:57.538Z,1.00
2023-05-09T13:39:00.006Z,1.10
2023-05-09T13:42:04.024Z,1.00
2023-05-09T13:45:07.109Z,0.90
2023-05-09T13:48:09.991Z,0.90
2023-05-09T13:51:12.576Z,1.08
2023-05-09T13:54:17.445Z,1.02
2023-05-09T13:57:20.105Z,0.98
2023-05-09T14:00:25.495Z,0.90
2023-05-09T14:03:28.348Z,1.10
2023-05-09T14:06:31.006Z,1.00
2023-05-09T14:09:40.084Z,0.90
2023-05-09T14:12:47.193Z,0.90
2023-05-09T14:15:50.149Z,0.90
2023-05-09T14:18:52.795Z,0.80
2023-05-09T14:21:56.088Z,1.12
2023-05-09T14:24:58.665Z,1.30
2023-05-09T14:28:01.637Z,0.80
2023-05-09T14:31:04.434Z,1.87
2023-05-09T14:34:07.334Z,0.80
2023-05-09T14:37:13.602Z,0.90
2023-05-09T14:40:16.774Z,1.30
2023-05-09T14:43:19.544Z,1.20
2023-05-09T14:46:24.867Z,1.00
2023-05-09T14:49:27.712Z,0.90
2023-05-09T14:52:30.548Z,1.17
2023-05-09T14:55:33.451Z,0.88
2023-05-09T14:58:36.296Z,0.62
2023-05-09T15:01:39.170Z,1.62
2023-05-09T15:04:43.826Z,0.90
2023-05-09T15:07:46.558Z,1.00
2023-05-09T15:10:50.902Z,0.90
2023-05-09T15:13:53.799Z,0.88
2023-05-09T15:16:59.262Z,1.00
2023-05-09T15:20:02.968Z,1.10
2023-05-09T15:23:07.482Z,1.20
2023-05-09T15:26:12.336Z,1.08
2023-05-09T15:29:15.175Z,1.20
2023-05-09T15:32:17.837Z,0.80
2023-05-09T15:35:20.743Z,0.90
2023-05-09T15:38:23.442Z,0.90
2023-05-09T15:41:26.185Z,1.17
2023-05-09T15:44:28.690Z,1.20
2023-05-09T15:47:31.592Z,1.15
2023-05-09T15:50:34.312Z,1.20
2023-05-09T15:53:37.289Z,0.88
2023-05-09T15:56:39.858Z,1.10
2023-05-09T15:59:42.667Z,1.00
2023-05-09T16:02:45.616Z,1.25
2023-05-09T16:05:48.574Z,0.90
2023-05-09T16:08:51.081Z,1.00
2023-05-09T16:11:54.012Z,1.10
2023-05-09T16:14:56.576Z,0.90
2023-05-09T16:17:59.375Z,1.25
2023-05-09T16:21:02.057Z,0.85
2023-05-09T16:24:05.758Z,0.80
2023-05-09T16:27:08.281Z,0.82
2023-05-09T16:30:11.526Z,0.98
2023-05-09T16:33:14.532Z,0.85
2023-05-09T16:36:17.699Z,0.80
2023-05-09T16:39:20.299Z,1.30
2023-05-09T16:42:23.209Z,1.27
2023-05-09T16:45:25.826Z,1.10
2023-05-09T16:48:28.737Z,1.00
2023-05-09T16:51:31.284Z,0.95
2023-05-09T16:54:34.073Z,1.00
2023-05-09T16:57:36.606Z,1.20
2023-05-09T17:00:39.503Z,1.40
2023-05-09T17:03:42.060Z,1.20
2023-05-09T17:06:44.854Z,1.70
2023-05-09T17:09:48.667Z,1.30
2023-05-09T17:12:51.883Z,1.27
2023-05-09T17:15:54.399Z,1.25
2023-05-09T17:18:57.328Z,1.33
2023-05-09T17:22:04.246Z,1.80
2023-05-09T17:25:07.671Z,1.20
2023-05-09T17:28:10.206Z,1.23
2023-05-09T17:31:13.305Z,1.60
2023-05-09T17:34:15.911Z,1.37
2023-05-09T17:37:18.700Z,1.20
2023-05-09T17:40:21.423Z,1.40
2023-05-09T17:43:24.337Z,1.50
2023-05-09T17:46:27.401Z,1.30
2023-05-09T17:49:30.444Z,1.37
2023-05-09T17:52:33.928Z,1.45
2023-05-09T17:55:36.807Z,1.30
2023-05-09T17:58:39.380Z,1.60
2023-05-09T18:01:42.194Z,1.83
2023-05-09T18:04:46.329Z,1.40
2023-05-09T18:07:49.582Z,1.35
2023-05-09T18:10:54.605Z,1.65
2023-05-09T18:13:57.061Z,1.42
2023-05-09T18:16:59.928Z,1.50
2023-05-09T18:20:03.490Z,1.70
2023-05-09T18:23:06.350Z,1.75
2023-05-09T18:26:08.848Z,1.40
2023-05-09T18:29:11.735Z,1.70
2023-05-09T18:32:14.360Z,1.70
2023-05-09T18:35:17.253Z,1.70
2023-05-09T18:38:19.936Z,1.80
2023-05-09T18:41:24.132Z,1.90
2023-05-09T18:44:26.606Z,1.58
2023-05-09T18:47:29.491Z,2.60
2023-05-09T18:50:32.589Z,1.87
2023-05-09T18:53:35.482Z,2.12
2023-05-09T18:56:39.666Z,2.05
2023-05-09T18:59:42.813Z,2.42
2023-05-09T19:02:45.858Z,2.42
2023-05-09T19:05:49.012Z,2.45
2023-05-09T19:08:53.853Z,2.75
2023-05-09T19:11:58.463Z,2.33
2023-05-09T19:15:02.328Z,2.37
2023-05-09T19:18:05.821Z,2.30
2023-05-09T19:21:09.445Z,2.28
2023-05-09T19:24:12.698Z,2.08
2023-05-09T19:27:15.642Z,2.00
2023-05-09T19:30:20.436Z,1.98
2023-05-09T19:33:23.533Z,2.00
2023-05-09T19:36:26.759Z,2.25
2023-05-09T19:39:29.798Z,2.17
2023-05-09T19:42:34.073Z,2.33
2023-05-09T19:45:37.132Z,2.70
2023-05-09T19:48:40.333Z,2.20
2023-05-09T19:51:43.584Z,2.10
2023-05-09T19:54:46.853Z,2.47
2023-05-09T19:57:49.615Z,2.35
2023-05-09T20:00:52.672Z,2.17
2023-05-09T20:03:56.839Z,2.30
2023-05-09T20:06:59.454Z,2.20
2023-05-09T20:10:02.378Z,2.33
2023-05-09T20:13:05.094Z,2.12
2023-05-09T20:16:08.006Z,1.98
2023-05-09T20:19:14.151Z,2.40
2023-05-09T20:22:17.172Z,2.30
2023-05-09T20:25:20.035Z,2.20
2023-05-09T20:28:23.032Z,2.10
2023-05-09T20:31:25.695Z,2.33
2023-05-09T20:34:28.457Z,2.28
2023-05-09T20:37:31.252Z,2.40
2023-05-09T20:40:34.174Z,2.30
2023-05-09T20:43:36.689Z,2.20
2023-05-09T20:46:40.347Z,2.12
2023-05-09T20:49:42.840Z,2.22
2023-05-09T20:52:45.654Z,2.10
2023-05-09T20:55:50.337Z,2.03
2023-05-09T20:58:53.358Z,2.22
2023-05-09T21:01:56.070Z,2.20
2023-05-09T21:04:58.950Z,2.20
2023-05-09T21:08:01.764Z,2.35
2023-05-09T21:11:04.521Z,4.22
2023-05-09T21:14:08.322Z,2.65
2023-05-09T21:17:11.082Z,2.50
2023-05-09T21:20:14.040Z,2.40
2023-05-09T21:23:18.636Z,2.70
2023-05-09T21:26:23.105Z,2.33
2023-05-09T21:29:26.179Z,2.50
2023-05-09T21:32:28.725Z,2.37
2023-05-09T21:35:31.628Z,2.45
2023-05-09T21:38:34.099Z,2.67
2023-05-09T21:41:38.484Z,2.60
2023-05-09T21:44:40.995Z,2.62
2023-05-09T21:47:44.049Z,2.30
2023-05-09T21:50:46.752Z,2.70
2023-05-09T21:53:49.527Z,2.62
2023-05-09T21:56:52.007Z,2.72
2023-05-09T21:59:56.164Z,2.10
2023-05-09T22:02:59.084Z,2.47
2023-05-09T22:06:01.894Z,2.37
2023-05-09T22:09:05.472Z,2.20
2023-05-09T22:12:08.876Z,2.28
2023-05-09T22:15:11.495Z,2.37
2023-05-09T22:18:14.329Z,2.25
2023-05-09T22:21:16.833Z,2.00
2023-05-09T22:24:19.583Z,2.10
2023-05-09T22:27:22.122Z,2.05
2023-05-09T22:30:25.052Z,2.00
2023-05-09T22:33:27.885Z,2.08
2023-05-09T22:36:31.987Z,2.25
2023-05-09T22:39:34.595Z,1.85
2023-05-09T22:42:37.478Z,2.10
2023-05-09T22:45:40.049Z,1.90
2023-05-09T22:48:42.906Z,2.10
2023-05-09T22:51:45.750Z,1.98
2023-05-09T22:54:48.561Z,2.00
2023-05-09T22:57:51.087Z,2.20
2023-05-09T23:00:54.002Z,2.12
2023-05-09T23:03:56.534Z,1.90
2023-05-09T23:07:17.780Z,1.90
2023-05-09T23:10:38.889Z,2.17
2023-05-09T23:13:42.285Z,2.20
2023-05-09T23:16:44.812Z,1.90
2023-05-09T23:19:47.619Z,2.12
2023-05-09T23:22:50.443Z,2.10
2023-05-09T23:25:53.349Z,2.40
2023-05-09T23:28:55.950Z,1.80
2023-05-09T23:31:59.059Z,1.87
2023-05-09T23:35:01.604Z,1.90
2023-05-09T23:38:04.748Z,1.87
2023-05-09T23:41:07.368Z,2.00
2023-05-09T23:44:12.254Z,1.90
2023-05-09T23:47:14.802Z,2.22
2023-05-09T23:50:17.949Z,1.80
2023-05-09T23:53:20.719Z,1.90
2023-05-09T23:56:23.619Z,2.42
2023-05-09T23:59:26.235Z,2.12
